Time;durP1;ratioP1;P1;durP2;ratioP2;P2;SDS_P1;SDS_P2;PMS_P1;PMS_P2;Temp;Humidity;BMP_temperature;BMP_pressure;BME280_temperature;BME280_humidity;BME280_pressure;Samples;Min_cycle;Max_cycle;Signal;HPM_P1;HPM_P2
2021/06/05 00:02:32;;;;;;;3.22;2.17;;;21.50;59.90;;;;;;6146054;28;20042;-82
2021/06/05 00:05:40;;;;;;;5.20;1.92;;;21.40;60.40;;;;;;6180562;28;20034;-82
2021/06/05 00:08:41;;;;;;;4.38;2.08;;;21.30;61.50;;;;;;6156688;28;20038;-83
2021/06/05 00:11:43;;;;;;;4.20;2.20;;;21.20;61.90;;;;;;6181310;28;20042;-82
2021/06/05 00:14:46;;;;;;;4.75;2.08;;;21.20;62.40;;;;;;6171396;28;20042;-80
2021/06/05 00:17:47;;;;;;;3.97;2.15;;;21.10;62.70;;;;;;6190292;28;20042;-81
2021/06/05 00:20:52;;;;;;;4.43;2.05;;;21.10;62.80;;;;;;6203675;28;20083;-81
2021/06/05 00:23:54;;;;;;;2.70;1.90;;;21.20;63.10;;;;;;6186904;28;20430;-81
2021/06/05 00:26:56;;;;;;;4.82;2.22;;;21.10;63.00;;;;;;6169076;28;20117;-82
2021/06/05 00:29:57;;;;;;;4.75;2.25;;;21.10;62.90;;;;;;6160556;28;20038;-84
2021/06/05 00:32:59;;;;;;;3.90;2.22;;;21.20;62.90;;;;;;6169893;28;20029;-81
2021/06/05 00:36:00;;;;;;;6.85;2.55;;;21.20;63.10;;;;;;6190292;28;20045;-81
2021/06/05 00:39:01;;;;;;;3.05;2.13;;;21.20;63.10;;;;;;6210502;28;20049;-81
2021/06/05 00:42:02;;;;;;;3.60;2.33;;;21.20;63.10;;;;;;6215382;28;20367;-81
2021/06/05 00:45:08;;;;;;;4.32;2.35;;;21.20;63.30;;;;;;6167743;28;20038;-80
2021/06/05 00:48:11;;;;;;;4.32;2.40;;;21.10;63.60;;;;;;6174060;28;20501;-80
2021/06/05 00:51:22;;;;;;;6.00;2.53;;;21.10;63.80;;;;;;6184814;28;20458;-81
2021/06/05 00:54:24;;;;;;;6.47;2.70;;;21.10;63.80;;;;;;6200762;28;20038;-80
2021/06/05 00:57:26;;;;;;;4.70;2.67;;;21.00;64.00;;;;;;6183881;28;20117;-80
2021/06/05 01:00:55;;;;;;;6.00;2.70;;;21.00;64.10;;;;;;6200112;28;20373;-80
2021/06/05 01:03:56;;;;;;;;;;;20.90;64.80;;;;;;6182411;28;20035;-79
2021/06/05 01:07:12;;;;;;;4.55;2.67;;;20.90;64.90;;;;;;6166853;28;19914;-80
2021/06/05 01:10:28;;;;;;;5.93;2.83;;;20.90;65.30;;;;;;6185219;28;20045;-83
2021/06/05 01:13:43;;;;;;;5.30;2.65;;;20.90;65.30;;;;;;6186477;28;20054;-82
2021/06/05 01:16:49;;;;;;;5.85;2.35;;;20.90;65.20;;;;;;6169624;28;20412;-83
2021/06/05 01:20:13;;;;;;;5.20;2.28;;;20.90;65.10;;;;;;6186825;28;20109;-84
2021/06/05 01:23:24;;;;;;;5.20;2.63;;;20.90;65.20;;;;;;6150423;28;20035;-81
2021/06/05 01:26:37;;;;;;;5.47;2.80;;;20.90;65.30;;;;;;6155063;28;20487;-82
2021/06/05 01:29:43;;;;;;;4.82;2.63;;;20.90;65.30;;;;;;6151087;28;20107;-82
2021/06/05 01:32:45;;;;;;;4.95;2.70;;;20.90;65.30;;;;;;6133399;29;20031;-82
2021/06/05 01:35:50;;;;;;;6.63;2.63;;;21.00;65.30;;;;;;6134099;28;20090;-82
2021/06/05 01:38:57;;;;;;;8.32;2.65;;;20.90;65.10;;;;;;6133634;28;20457;-82
2021/06/05 01:42:06;;;;;;;4.82;2.70;;;21.00;65.10;;;;;;6140619;28;20032;-82
2021/06/05 01:45:19;;;;;;;5.63;2.85;;;21.00;65.10;;;;;;6149143;28;20039;-82
2021/06/05 01:48:23;;;;;;;4.70;2.72;;;21.00;65.10;;;;;;6133393;28;20046;-82
2021/06/05 01:51:27;;;;;;;7.95;2.53;;;20.90;65.50;;;;;;6124059;28;20413;-82
2021/06/05 01:54:40;;;;;;;5.22;2.42;;;20.80;65.70;;;;;;6133970;28;20038;-82
2021/06/05 01:57:48;;;;;;;4.00;2.70;;;20.70;66.10;;;;;;6140677;28;20050;-82
2021/06/05 02:00:59;;;;;;;5.13;2.60;;;20.70;66.40;;;;;;6164974;28;20049;-82
2021/06/05 02:04:06;;;;;;;6.93;2.83;;;20.70;66.70;;;;;;6183552;28;20034;-81
2021/06/05 02:07:18;;;;;;;3.75;2.42;;;20.70;67.10;;;;;;6181595;28;20066;-81
2021/06/05 02:10:25;;;;;;;4.75;2.08;;;20.70;66.70;;;;;;6181419;28;20371;-82
2021/06/05 02:13:39;;;;;;;2.65;1.40;;;20.70;66.30;;;;;;6196977;28;20054;-82
2021/06/05 02:16:52;;;;;;;4.82;1.60;;;20.70;65.60;;;;;;6179412;28;20030;-80
2021/06/05 02:20:05;;;;;;;2.38;1.50;;;20.70;64.90;;;;;;6184857;28;20481;-81
2021/06/05 02:23:39;;;;;;;2.55;1.30;;;20.70;65.10;;;;;;6163342;28;20034;-79
2021/06/05 02:26:42;;;;;;;4.20;1.33;;;20.60;65.30;;;;;;6186982;28;20030;-81
2021/06/05 02:29:45;;;;;;;1.77;1.50;;;20.50;66.00;;;;;;6162857;28;20041;-81
2021/06/05 02:32:49;;;;;;;3.85;1.17;;;20.40;66.50;;;;;;6166312;28;20037;-81
2021/06/05 02:35:55;;;;;;;2.88;1.38;;;20.40;67.10;;;;;;6164804;28;20034;-80
2021/06/05 02:39:13;;;;;;;4.78;1.35;;;20.30;67.50;;;;;;6142629;28;20029;-81
2021/06/05 02:42:19;;;;;;;3.15;1.63;;;20.20;67.80;;;;;;6172644;28;20058;-81
2021/06/05 02:45:28;;;;;;;1.83;1.25;;;20.10;68.10;;;;;;6156847;28;20042;-80
2021/06/05 02:48:55;;;;;;;1.70;1.17;;;20.10;68.50;;;;;;6149489;28;20035;-81
2021/06/05 02:52:03;;;;;;;2.40;1.20;;;20.10;68.80;;;;;;6196406;28;20065;-80
2021/06/05 02:55:16;;;;;;;2.78;0.90;;;20.00;69.00;;;;;;6180997;28;20108;-81
2021/06/05 02:58:19;;;;;;;4.70;0.95;;;19.90;69.10;;;;;;6180490;28;20050;-79
2021/06/05 03:01:22;;;;;;;1.30;0.80;;;19.70;69.10;;;;;;6181218;28;20110;-79
2021/06/05 03:04:25;;;;;;;0.65;0.63;;;19.70;69.20;;;;;;6189497;28;20038;-80
2021/06/05 03:07:27;;;;;;;1.00;0.80;;;19.70;69.20;;;;;;6181912;28;20404;-80
2021/06/05 03:10:32;;;;;;;1.27;1.15;;;19.70;69.10;;;;;;6169491;28;20038;-81
2021/06/05 03:13:37;;;;;;;0.68;0.68;;;19.70;68.90;;;;;;6165515;28;20057;-80
2021/06/05 03:16:39;;;;;;;0.70;0.60;;;19.80;68.70;;;;;;6164655;28;20038;-80
2021/06/05 03:19:42;;;;;;;1.58;0.85;;;19.70;68.50;;;;;;6181331;28;20038;-80
2021/06/05 03:22:45;;;;;;;1.02;0.50;;;19.80;68.40;;;;;;6199119;28;20049;-81
2021/06/05 03:25:47;;;;;;;2.35;0.90;;;19.90;68.40;;;;;;6167657;28;20054;-82
2021/06/05 03:28:50;;;;;;;3.10;0.95;;;19.90;68.10;;;;;;6182601;28;20053;-81
2021/06/05 03:31:53;;;;;;;3.50;1.33;;;20.00;68.00;;;;;;6157123;28;20034;-81
2021/06/05 03:34:55;;;;;;;6.30;1.13;;;20.00;68.00;;;;;;6172498;28;20041;-81
2021/06/05 03:37:56;;;;;;;3.63;0.80;;;20.00;68.10;;;;;;6202679;28;20355;-80
2021/06/05 03:41:00;;;;;;;1.80;0.93;;;20.10;68.20;;;;;;6201544;28;20038;-79
2021/06/05 03:44:04;;;;;;;1.00;0.70;;;20.10;68.20;;;;;;6191259;28;20179;-81
2021/06/05 03:47:07;;;;;;;2.28;0.52;;;20.00;68.10;;;;;;6160278;28;20093;-81
2021/06/05 03:50:10;;;;;;;1.83;0.65;;;20.10;68.10;;;;;;6169439;28;20411;-80
2021/06/05 03:53:15;;;;;;;3.50;0.95;;;20.00;68.10;;;;;;6186135;28;20379;-81
2021/06/05 03:56:17;;;;;;;0.52;0.50;;;20.00;67.90;;;;;;6170031;28;20085;-81
2021/06/05 03:59:18;;;;;;;2.80;0.52;;;19.90;68.20;;;;;;6170232;28;20026;-81
2021/06/05 04:02:21;;;;;;;0.52;0.50;;;20.00;68.40;;;;;;6185981;28;20077;-79
2021/06/05 04:05:22;;;;;;;1.05;0.50;;;19.90;68.20;;;;;;6204394;28;20045;-80
2021/06/05 04:08:23;;;;;;;2.05;0.60;;;19.80;68.10;;;;;;6169530;28;20035;-80
2021/06/05 04:11:26;;;;;;;0.52;0.50;;;19.90;68.20;;;;;;6185295;28;20038;-80
2021/06/05 04:14:28;;;;;;;1.80;1.17;;;19.90;68.00;;;;;;6202189;28;20368;-81
2021/06/05 04:17:29;;;;;;;2.38;1.50;;;20.00;67.90;;;;;;6184701;28;20506;-79
2021/06/05 04:20:31;;;;;;;2.53;1.70;;;20.00;68.30;;;;;;6186714;28;20043;-80
2021/06/05 04:23:33;;;;;;;4.13;1.85;;;20.10;68.90;;;;;;6183620;28;20119;-79
2021/06/05 04:26:34;;;;;;;3.20;1.58;;;20.10;69.30;;;;;;6169166;28;20048;-80
2021/06/05 04:29:36;;;;;;;2.05;1.70;;;20.20;69.30;;;;;;6159952;28;20031;-80
2021/06/05 04:32:37;;;;;;;3.08;2.08;;;20.30;69.30;;;;;;6169385;28;20073;-81
2021/06/05 04:35:38;;;;;;;1.73;1.17;;;20.30;69.30;;;;;;6204903;28;20059;-80
2021/06/05 04:38:40;;;;;;;1.33;1.00;;;20.30;69.10;;;;;;6169412;28;20048;-81
2021/06/05 04:41:41;;;;;;;1.23;0.88;;;20.20;68.90;;;;;;6185652;28;20416;-81
2021/06/05 04:44:42;;;;;;;1.00;0.90;;;20.10;68.90;;;;;;6184909;28;20042;-81
2021/06/05 04:47:43;;;;;;;8.88;1.42;;;20.10;68.70;;;;;;6184397;28;20077;-82
2021/06/05 04:50:46;;;;;;;2.10;1.10;;;20.10;68.70;;;;;;6168952;28;20467;-82
2021/06/05 04:53:48;;;;;;;7.43;0.70;;;20.00;68.40;;;;;;6174397;28;20371;-82
2021/06/05 04:56:50;;;;;;;7.05;0.68;;;20.00;68.30;;;;;;6168276;28;20061;-81
2021/06/05 04:59:51;;;;;;;0.88;0.52;;;20.10;68.30;;;;;;6184956;28;20113;-82
2021/06/05 05:02:53;;;;;;;0.80;0.60;;;20.10;68.00;;;;;;6184170;28;20042;-82
2021/06/05 05:05:56;;;;;;;1.38;0.55;;;20.00;67.80;;;;;;6184658;28;20061;-82
2021/06/05 05:08:58;;;;;;;1.10;0.70;;;20.10;67.70;;;;;;6174152;28;20038;-82
2021/06/05 05:12:03;;;;;;;2.28;0.90;;;20.00;67.40;;;;;;6184561;28;20479;-82
2021/06/05 05:15:05;;;;;;;2.78;1.10;;;20.00;67.40;;;;;;6186125;28;20038;-82
2021/06/05 05:18:06;;;;;;;4.50;0.90;;;20.00;67.50;;;;;;6206121;28;20030;-80
2021/06/05 05:21:08;;;;;;;1.95;0.90;;;20.00;67.60;;;;;;6186787;28;20046;-80
2021/06/05 05:24:09;;;;;;;0.73;0.60;;;19.90;67.80;;;;;;6185971;28;20094;-80
2021/06/05 05:27:10;;;;;;;5.00;1.10;;;19.90;68.10;;;;;;6184578;28;20117;-80
2021/06/05 05:30:21;;;;;;;1.88;0.95;;;19.90;68.40;;;;;;6183698;28;20040;-81
2021/06/05 05:33:23;;;;;;;1.52;0.70;;;20.00;68.50;;;;;;6184276;28;20034;-81
2021/06/05 05:36:30;;;;;;;7.70;1.02;;;20.10;68.40;;;;;;6202116;28;20364;-82
2021/06/05 05:39:31;;;;;;;11.32;1.02;;;20.10;68.20;;;;;;6219786;28;20049;-82
2021/06/05 05:42:34;;;;;;;2.65;1.08;;;20.10;68.00;;;;;;6209226;28;20503;-82
2021/06/05 05:45:37;;;;;;;1.70;0.80;;;20.10;67.80;;;;;;6209201;28;20096;-82
2021/06/05 05:48:39;;;;;;;1.48;0.88;;;20.20;68.00;;;;;;6208981;28;20046;-82
2021/06/05 05:51:40;;;;;;;2.47;0.80;;;20.30;67.80;;;;;;6179937;28;20074;-81
2021/06/05 05:54:41;;;;;;;5.32;0.95;;;20.40;67.60;;;;;;6184147;28;20189;-82
2021/06/05 05:57:42;;;;;;;1.67;0.70;;;20.50;67.30;;;;;;6184479;28;20421;-83
2021/06/05 06:00:47;;;;;;;2.63;1.30;;;20.60;67.00;;;;;;6185074;28;20137;-80
2021/06/05 06:03:49;;;;;;;3.17;1.10;;;20.70;66.70;;;;;;6184482;28;20383;-79
2021/06/05 06:06:50;;;;;;;1.33;1.00;;;20.80;66.30;;;;;;6201397;28;20104;-82
2021/06/05 06:09:52;;;;;;;1.42;1.17;;;20.90;66.80;;;;;;6203431;28;20030;-80
2021/06/05 06:12:53;;;;;;;7.20;1.20;;;21.00;65.90;;;;;;6187781;28;20114;-82
2021/06/05 06:15:54;;;;;;;1.83;1.00;;;21.10;65.60;;;;;;6184944;28;21570;-82
2021/06/05 06:18:55;;;;;;;4.43;0.80;;;21.20;65.30;;;;;;6184375;28;20022;-81
2021/06/05 06:21:56;;;;;;;2.45;1.00;;;21.30;65.00;;;;;;6184570;28;20071;-77
2021/06/05 06:24:57;;;;;;;2.53;1.15;;;21.40;64.70;;;;;;6183139;28;20034;-77
2021/06/05 06:28:09;;;;;;;3.08;1.30;;;21.50;64.30;;;;;;6185938;28;20035;-77
2021/06/05 06:31:11;;;;;;;4.53;0.95;;;21.50;64.00;;;;;;6183845;28;20378;-79
2021/06/05 06:34:14;;;;;;;1.02;0.88;;;21.60;63.70;;;;;;6183289;28;20359;-78
2021/06/05 06:37:15;;;;;;;0.80;0.60;;;21.60;63.40;;;;;;6182975;28;20410;-78
2021/06/05 06:40:24;;;;;;;0.73;0.70;;;21.70;63.40;;;;;;6182636;28;20030;-78
2021/06/05 06:43:28;;;;;;;0.60;0.60;;;21.70;63.00;;;;;;6182219;28;20053;-77
2021/06/05 06:46:43;;;;;;;1.33;0.90;;;21.70;62.70;;;;;;6182221;28;20046;-77
2021/06/05 06:49:44;;;;;;;1.48;0.75;;;21.70;62.70;;;;;;6199061;28;20050;-76
2021/06/05 06:52:45;;;;;;;1.17;0.68;;;21.80;62.40;;;;;;6172948;28;20425;-78
2021/06/05 06:55:46;;;;;;;1.17;0.68;;;21.90;62.30;;;;;;6181435;28;20753;-78
2021/06/05 06:58:48;;;;;;;2.35;0.90;;;22.00;62.00;;;;;;6181404;28;20046;-79
2021/06/05 07:01:49;;;;;;;0.77;0.68;;;22.10;61.80;;;;;;6180382;28;20476;-77
2021/06/05 07:04:51;;;;;;;1.00;0.50;;;22.10;61.80;;;;;;6164992;28;20050;-78
2021/06/05 07:08:04;;;;;;;0.60;0.60;;;22.20;61.60;;;;;;6180932;28;20383;-78
2021/06/05 07:11:11;;;;;;;1.23;0.50;;;22.20;61.40;;;;;;6167039;28;20049;-78
2021/06/05 07:14:12;;;;;;;1.13;0.52;;;22.30;61.20;;;;;;6168208;28;20039;-78
2021/06/05 07:17:13;;;;;;;1.58;0.95;;;22.40;60.80;;;;;;6155492;28;20475;-78
2021/06/05 07:20:15;;;;;;;0.40;0.38;;;22.60;60.40;;;;;;6175308;28;20041;-77
2021/06/05 07:23:18;;;;;;;1.42;0.60;;;22.90;59.70;;;;;;6179778;28;20041;-78
2021/06/05 07:26:25;;;;;;;0.47;0.40;;;23.20;59.00;;;;;;6180641;28;20058;-78
2021/06/05 07:29:26;;;;;;;2.97;0.88;;;23.40;58.00;;;;;;6197165;28;20125;-78
2021/06/05 07:32:27;;;;;;;0.40;0.40;;;23.50;57.70;;;;;;6170495;28;20042;-78
2021/06/05 07:35:28;;;;;;;1.17;0.90;;;23.70;57.50;;;;;;6178503;28;20047;-79
2021/06/05 07:38:29;;;;;;;0.98;0.75;;;23.80;57.10;;;;;;6177451;28;20050;-77
2021/06/05 07:41:30;;;;;;;5.90;2.03;;;23.90;57.00;;;;;;6194552;28;20046;-77
2021/06/05 07:44:32;;;;;;;1.92;1.05;;;23.90;57.40;;;;;;6178667;28;20034;-78
2021/06/05 07:47:33;;;;;;;3.03;1.23;;;24.10;56.60;;;;;;6183041;28;20498;-77
2021/06/05 07:50:34;;;;;;;1.02;0.90;;;24.10;56.40;;;;;;6194108;28;20471;-77
2021/06/05 07:53:36;;;;;;;1.67;0.98;;;24.10;56.40;;;;;;6180460;28;20069;-77
2021/06/05 07:56:37;;;;;;;1.17;0.88;;;24.30;56.40;;;;;;6174012;28;20467;-77
2021/06/05 07:59:40;;;;;;;1.77;0.80;;;24.40;55.90;;;;;;6159201;28;20046;-78
2021/06/05 08:02:44;;;;;;;1.90;0.77;;;24.60;55.70;;;;;;6164179;28;20073;-78
2021/06/05 08:05:47;;;;;;;1.38;0.73;;;24.70;55.10;;;;;;6135999;28;20464;-78
2021/06/05 08:08:53;;;;;;;2.00;1.00;;;24.70;54.70;;;;;;6148056;28;20038;-78
2021/06/05 08:11:57;;;;;;;2.70;0.70;;;24.80;54.20;;;;;;6166971;28;20050;-80
2021/06/05 08:15:00;;;;;;;8.02;0.93;;;24.80;53.80;;;;;;6165675;28;20046;-76
2021/06/05 08:18:01;;;;;;;1.50;0.90;;;24.80;53.60;;;;;;6191823;28;20557;-80
2021/06/05 08:21:08;;;;;;;1.08;0.88;;;24.90;53.30;;;;;;6171697;28;20088;-76
2021/06/05 08:24:11;;;;;;;1.08;0.70;;;24.90;53.00;;;;;;6167608;28;20049;-76
2021/06/05 08:27:14;;;;;;;2.05;0.75;;;24.90;52.20;;;;;;6171529;28;20031;-76
2021/06/05 08:30:20;;;;;;;2.10;0.90;;;24.90;51.70;;;;;;6168800;28;20026;-77
2021/06/05 08:33:24;;;;;;;1.23;0.50;;;24.90;51.20;;;;;;6166205;28;20030;-76
2021/06/05 08:36:27;;;;;;;1.35;0.55;;;25.00;51.00;;;;;;6170466;28;20042;-76
2021/06/05 08:39:28;;;;;;;3.42;0.82;;;25.00;50.90;;;;;;6172195;28;20046;-77
2021/06/05 08:42:36;;;;;;;1.05;0.60;;;25.10;50.80;;;;;;6170218;28;20499;-77
2021/06/05 08:45:38;;;;;;;3.45;0.65;;;25.10;50.70;;;;;;6180164;28;20467;-77
2021/06/05 08:48:40;;;;;;;1.60;0.80;;;25.10;50.70;;;;;;6182867;28;20038;-76
2021/06/05 08:52:25;;;;;;;1.48;0.65;;;25.10;50.50;;;;;;6184330;28;20363;-75
2021/06/05 08:55:40;;;;;;;5.05;1.80;;;25.00;50.60;;;;;;6146606;28;20128;-77
2021/06/05 08:58:49;;;;;;;1.88;1.10;;;25.10;50.20;;;;;;6186490;28;20038;-78
2021/06/05 09:01:51;;;;;;;1.30;0.80;;;25.10;51.00;;;;;;6165659;28;20042;-77
2021/06/05 09:04:57;;;;;;;0.68;0.63;;;25.00;50.30;;;;;;6189898;28;20139;-77
2021/06/05 09:08:04;;;;;;;0.60;0.60;;;25.10;50.30;;;;;;6172579;28;20089;-77
2021/06/05 09:11:05;;;;;;;0.50;0.50;;;25.10;50.00;;;;;;6187351;28;20495;-77
2021/06/05 09:14:06;;;;;;;0.50;0.50;;;25.20;49.80;;;;;;6186186;28;20065;-77
2021/06/05 09:17:33;;;;;;;2.30;0.70;;;25.20;49.70;;;;;;6173995;28;20118;-76
2021/06/05 09:20:38;;;;;;;1.90;0.73;;;25.20;49.50;;;;;;6157791;28;20038;-76
2021/06/05 09:23:41;;;;;;;0.75;0.70;;;25.30;49.30;;;;;;6162839;28;20035;-76
2021/06/05 09:27:07;;;;;;;1.30;0.70;;;25.40;49.10;;;;;;6183972;28;20037;-76
2021/06/05 09:30:34;;;;;;;2.15;0.70;;;25.60;48.90;;;;;;6165775;28;20176;-77
2021/06/05 09:33:35;;;;;;;0.60;0.60;;;25.70;48.20;;;;;;6185696;28;20126;-77
2021/06/05 09:36:38;;;;;;;1.73;0.52;;;25.70;47.90;;;;;;6189808;28;20035;-76
2021/06/05 09:40:02;;;;;;;2.22;0.80;;;25.70;47.70;;;;;;6183042;28;20114;-77
2021/06/05 09:43:09;;;;;;;0.75;0.70;;;25.50;47.30;;;;;;6179829;28;20558;-76
2021/06/05 09:46:24;;;;;;;1.08;0.65;;;25.40;47.20;;;;;;6195837;28;20034;-77
2021/06/05 09:49:31;;;;;;;3.28;0.90;;;25.30;46.70;;;;;;6178828;28;20125;-77
2021/06/05 09:52:37;;;;;;;1.95;0.80;;;25.30;46.30;;;;;;6182587;28;20030;-77
2021/06/05 09:55:42;;;;;;;5.30;2.70;;;25.20;46.30;;;;;;6185353;28;20484;-77
2021/06/05 09:58:46;;;;;;;1.50;0.85;;;25.30;46.90;;;;;;6199038;28;20084;-77
2021/06/05 10:02:11;;;;;;;3.40;0.73;;;25.40;47.00;;;;;;6141524;28;20042;-78
2021/06/05 10:05:24;;;;;;;1.92;0.98;;;25.50;46.90;;;;;;6173124;28;20363;-78
2021/06/05 10:08:43;;;;;;;1.42;1.08;;;25.70;46.60;;;;;;6188731;28;20104;-75
2021/06/05 10:11:44;;;;;;;;;;;25.80;46.30;;;;;;6182010;28;20038;-77
2021/06/05 10:15:29;;;;;;;4.07;0.60;;;25.90;45.90;;;;;;6200554;28;19932;-77
2021/06/05 10:18:45;;;;;;;0.73;0.52;;;25.90;45.30;;;;;;6168256;28;20073;-78
2021/06/05 10:21:48;;;;;;;0.88;0.50;;;25.90;44.90;;;;;;6180382;28;20110;-77
2021/06/05 10:24:49;;;;;;;5.72;1.42;;;25.90;44.40;;;;;;6188797;28;20038;-77
2021/06/05 10:27:51;;;;;;;0.95;0.57;;;25.90;44.40;;;;;;6181174;28;20065;-76
2021/06/05 10:30:57;;;;;;;0.85;0.50;;;26.00;44.40;;;;;;6181693;28;20038;-78
2021/06/05 10:34:14;;;;;;;0.40;0.40;;;26.00;44.10;;;;;;6184730;28;20038;-77
2021/06/05 10:37:22;;;;;;;1.13;0.57;;;26.10;43.40;;;;;;6173238;28;20034;-76
2021/06/05 10:40:26;;;;;;;0.30;0.30;;;26.20;43.50;;;;;;6179814;28;20076;-77
2021/06/05 10:43:31;;;;;;;1.83;0.32;;;26.20;43.10;;;;;;6181006;28;20060;-76
2021/06/05 10:47:08;;;;;;;1.10;0.45;;;26.30;42.50;;;;;;6180450;28;20209;-76
2021/06/05 10:50:30;;;;;;;0.52;0.50;;;26.40;42.40;;;;;;6181567;28;20035;-76
2021/06/05 10:53:45;;;;;;;0.50;0.50;;;26.50;41.40;;;;;;6167433;28;20098;-76
2021/06/05 10:57:09;;;;;;;2.47;0.60;;;26.60;40.50;;;;;;6183633;28;20043;-77
2021/06/05 11:00:28;;;;;;;1.33;0.45;;;26.70;40.30;;;;;;6156248;28;20051;-75
2021/06/05 11:03:30;;;;;;;2.92;0.52;;;27.00;39.50;;;;;;6181025;28;20073;-78
2021/06/05 11:07:03;;;;;;;1.60;0.40;;;28.30;37.70;;;;;;6163211;28;20034;-77
2021/06/05 11:10:07;;;;;;;3.90;0.63;;;29.80;35.20;;;;;;6140896;28;20117;-76
2021/06/05 11:13:11;;;;;;;0.47;0.47;;;30.90;32.80;;;;;;6181089;28;20448;-77
2021/06/05 11:16:19;;;;;;;0.43;0.40;;;31.90;31.40;;;;;;6186436;28;20034;-76
2021/06/05 11:19:51;;;;;;;1.83;0.80;;;32.70;30.10;;;;;;6183421;28;20081;-77
2021/06/05 11:22:53;;;;;;;0.60;0.60;;;33.30;29.40;;;;;;6185005;28;20058;-76
2021/06/05 11:25:56;;;;;;;3.72;0.65;;;33.50;29.30;;;;;;6189466;28;20520;-76
2021/06/05 11:28:56;;;;;;;1.00;0.60;;;33.60;29.60;;;;;;6185151;28;20026;-76
2021/06/05 11:32:22;;;;;;;0.40;0.40;;;33.90;29.50;;;;;;6193641;28;20410;-76
2021/06/05 11:35:44;;;;;;;0.65;0.65;;;34.10;29.10;;;;;;6190601;28;20031;-76
2021/06/05 11:38:47;;;;;;;0.70;0.68;;;34.20;29.20;;;;;;6175252;28;20039;-75
2021/06/05 11:41:52;;;;;;;0.40;0.40;;;34.40;29.10;;;;;;6172333;28;20133;-77
2021/06/05 11:44:56;;;;;;;0.60;0.60;;;34.50;28.80;;;;;;6172427;28;20063;-76
2021/06/05 11:47:57;;;;;;;0.50;0.50;;;34.40;28.70;;;;;;6176339;28;20046;-77
2021/06/05 11:51:28;;;;;;;5.20;0.82;;;34.50;28.80;;;;;;6160197;28;20099;-79
2021/06/05 11:54:28;;;;;;;1.15;0.70;;;34.70;28.90;;;;;;6168343;28;20049;-77
2021/06/05 11:57:43;;;;;;;2.05;0.70;;;34.80;28.70;;;;;;6150653;28;20436;-77
2021/06/05 12:00:58;;;;;;;0.68;0.57;;;35.10;28.40;;;;;;6145237;28;20496;-78
2021/06/05 12:04:20;;;;;;;3.20;0.70;;;35.20;28.10;;;;;;6174378;28;20084;-76
2021/06/05 12:07:30;;;;;;;1.33;0.70;;;35.10;27.90;;;;;;6131372;28;20031;-78
2021/06/05 12:10:38;;;;;;;2.13;0.73;;;35.10;27.90;;;;;;6191747;28;20050;-79
2021/06/05 12:13:43;;;;;;;1.58;0.60;;;35.20;27.70;;;;;;6179521;28;21847;-78
2021/06/05 12:16:58;;;;;;;1.10;0.63;;;35.30;27.40;;;;;;6197478;28;20150;-77
2021/06/05 12:20:15;;;;;;;1.60;0.77;;;35.60;27.00;;;;;;6188292;28;20030;-76
2021/06/05 12:23:53;;;;;;;1.10;0.63;;;35.40;26.40;;;;;;6183294;28;20112;-77
2021/06/05 12:26:54;;;;;;;1.25;0.65;;;34.80;26.80;;;;;;6207962;28;20042;-77
2021/06/05 12:30:13;;;;;;;2.05;0.50;;;34.50;27.00;;;;;;6225100;28;20030;-77
2021/06/05 12:33:25;;;;;;;0.65;0.50;;;33.90;27.20;;;;;;6171576;28;20325;-78
2021/06/05 12:36:31;;;;;;;3.05;0.45;;;33.60;27.60;;;;;;6170850;28;20042;-79
2021/06/05 12:39:43;;;;;;;0.88;0.60;;;33.80;27.70;;;;;;6176722;28;20062;-80
2021/06/05 12:42:46;;;;;;;0.30;0.30;;;33.90;27.50;;;;;;6155516;28;20523;-80
2021/06/05 12:45:47;;;;;;;0.52;0.50;;;33.70;27.70;;;;;;6159912;28;20106;-80
2021/06/05 12:48:51;;;;;;;0.55;0.55;;;33.80;27.80;;;;;;6162748;28;20039;-77
2021/06/05 12:51:58;;;;;;;0.65;0.50;;;34.10;27.40;;;;;;6153764;28;20041;-77
2021/06/05 12:55:28;;;;;;;0.85;0.52;;;34.30;27.30;;;;;;6134674;28;20027;-77
2021/06/05 12:58:34;;;;;;;3.65;0.60;;;34.70;27.00;;;;;;6155363;28;20037;-76
2021/06/05 13:01:46;;;;;;;0.40;0.40;;;35.20;26.70;;;;;;6166454;28;20042;-76
2021/06/05 13:04:48;;;;;;;0.57;0.45;;;35.60;26.40;;;;;;6163064;28;20034;-75
2021/06/05 13:08:19;;;;;;;2.17;0.70;;;36.40;25.90;;;;;;6170509;28;20034;-78
2021/06/05 13:12:00;;;;;;;0.63;0.50;;;36.40;25.90;;;;;;6174614;28;20081;-77
2021/06/05 13:15:12;;;;;;;1.95;0.90;;;35.80;26.20;;;;;;6066950;29;20044;-77
2021/06/05 13:18:25;;;;;;;0.50;0.50;;;34.80;27.30;;;;;;6062801;29;20100;-78
2021/06/05 13:21:31;;;;;;;7.63;0.63;;;34.70;27.40;;;;;;6088249;29;20054;-77
2021/06/05 13:24:33;;;;;;;0.60;0.60;;;35.40;26.70;;;;;;6083280;29;20143;-77
2021/06/05 13:28:01;;;;;;;0.63;0.63;;;36.00;25.90;;;;;;6079731;29;20040;-78
2021/06/05 13:31:05;;;;;;;2.83;0.40;;;36.90;25.00;;;;;;6093338;29;20040;-77
2021/06/05 13:34:29;;;;;;;1.73;0.60;;;37.90;24.40;;;;;;6095262;29;20067;-77
2021/06/05 13:37:59;;;;;;;0.90;0.85;;;38.80;23.70;;;;;;6071043;29;20110;-77
2021/06/05 13:41:04;;;;;;;1.25;0.60;;;39.20;23.10;;;;;;6080545;29;20509;-76
2021/06/05 13:44:07;;;;;;;1.13;0.60;;;39.30;22.80;;;;;;6089782;29;20024;-77
2021/06/05 13:47:10;;;;;;;0.98;0.60;;;39.60;22.50;;;;;;6102792;28;20189;-77
2021/06/05 13:50:17;;;;;;;0.60;0.50;;;39.90;22.10;;;;;;6157922;28;20038;-78
2021/06/05 13:53:33;;;;;;;0.60;0.50;;;40.20;21.70;;;;;;6172818;28;20047;-76
2021/06/05 13:56:36;;;;;;;0.55;0.55;;;40.40;21.50;;;;;;6182408;28;20077;-78
2021/06/05 13:59:37;;;;;;;0.95;0.85;;;40.60;21.20;;;;;;6164547;28;20113;-76
2021/06/05 14:02:40;;;;;;;0.73;0.40;;;40.80;21.10;;;;;;6180638;28;20054;-78
2021/06/05 14:05:41;;;;;;;1.77;0.60;;;41.10;20.90;;;;;;6199749;28;20035;-78
2021/06/05 14:08:42;;;;;;;0.70;0.60;;;41.30;20.60;;;;;;6164969;28;20050;-77
2021/06/05 14:11:43;;;;;;;1.13;0.43;;;41.30;20.70;;;;;;6181478;28;20050;-76
2021/06/05 14:14:44;;;;;;;0.70;0.52;;;41.30;20.60;;;;;;6171089;28;20050;-76
2021/06/05 14:17:46;;;;;;;1.80;0.98;;;41.10;20.70;;;;;;6171667;28;20489;-76
2021/06/05 14:20:49;;;;;;;1.75;0.60;;;41.10;20.90;;;;;;6174118;28;20058;-76
2021/06/05 14:23:50;;;;;;;0.63;0.40;;;41.30;20.80;;;;;;6171994;28;20101;-77
2021/06/05 14:26:51;;;;;;;3.28;0.60;;;41.50;20.60;;;;;;6171957;28;20034;-77
2021/06/05 14:29:52;;;;;;;4.30;0.55;;;41.60;20.50;;;;;;6173033;28;20109;-76
2021/06/05 14:32:53;;;;;;;0.68;0.40;;;41.80;20.40;;;;;;6172943;28;20088;-76
2021/06/05 14:35:56;;;;;;;0.43;0.43;;;42.20;19.90;;;;;;6171823;28;20035;-77
2021/06/05 14:38:57;;;;;;;0.77;0.77;;;42.20;19.40;;;;;;6171725;28;20356;-75
2021/06/05 14:42:04;;;;;;;0.22;0.22;;;42.30;19.50;;;;;;6187315;28;20500;-76
2021/06/05 14:49:27;;;;;;;1.95;0.28;;;42.30;19.30;;;;;;6190390;28;20046;-75
2021/06/05 14:52:28;;;;;;;0.63;0.43;;;42.40;19.40;;;;;;6170435;28;20050;-76
2021/06/05 14:55:32;;;;;;;2.35;0.70;;;42.10;19.20;;;;;;6188024;28;20089;-76
2021/06/05 14:58:33;;;;;;;1.05;0.40;;;40.30;20.60;;;;;;6171999;28;20038;-76
2021/06/05 15:01:35;;;;;;;0.70;0.43;;;38.10;22.40;;;;;;6187494;28;20424;-77
2021/06/05 15:04:36;;;;;;;1.42;0.57;;;36.40;24.20;;;;;;6186937;28;20027;-76
2021/06/05 15:07:37;;;;;;;0.52;0.47;;;35.00;25.50;;;;;;6171525;28;20085;-76
2021/06/05 15:10:38;;;;;;;2.55;0.60;;;33.90;26.70;;;;;;6170145;28;20049;-76
2021/06/05 15:13:39;;;;;;;0.68;0.50;;;33.20;27.30;;;;;;6161516;28;20061;-77
2021/06/05 15:16:40;;;;;;;2.58;0.30;;;32.60;27.80;;;;;;6171141;28;20034;-78
2021/06/05 15:19:42;;;;;;;0.40;0.40;;;32.00;28.80;;;;;;6169501;28;20045;-78
2021/06/05 15:22:46;;;;;;;1.27;0.40;;;31.60;29.50;;;;;;6176736;28;20046;-78
2021/06/05 15:25:49;;;;;;;4.13;0.55;;;32.40;29.20;;;;;;6178505;28;20410;-76
2021/06/05 15:28:50;;;;;;;0.45;0.45;;;33.50;28.10;;;;;;6199677;28;20333;-76
2021/06/05 15:31:52;;;;;;;0.85;0.52;;;34.50;27.00;;;;;;6174192;28;20120;-77
2021/06/05 15:34:53;;;;;;;0.60;0.47;;;35.60;26.20;;;;;;6182927;28;20030;-77
2021/06/05 15:37:54;;;;;;;1.58;0.70;;;36.50;25.20;;;;;;6183726;28;20096;-78
2021/06/05 15:40:55;;;;;;;0.98;0.68;;;37.10;24.40;;;;;;6182315;28;20038;-76
2021/06/05 15:43:56;;;;;;;0.70;0.43;;;37.50;24.00;;;;;;6182542;28;20375;-77
2021/06/05 15:46:59;;;;;;;1.83;0.40;;;37.70;23.70;;;;;;6182824;28;20026;-77
2021/06/05 15:50:02;;;;;;;0.47;0.47;;;37.90;23.60;;;;;;6201069;28;20050;-77
2021/06/05 15:53:05;;;;;;;3.03;0.50;;;37.90;23.80;;;;;;6183635;28;20096;-77
2021/06/05 16:00:30;;;;;;;1.60;0.50;;;37.90;23.80;;;;;;6217181;28;20030;-77
2021/06/05 16:03:31;;;;;;;4.28;0.47;;;37.60;24.00;;;;;;6193439;28;20379;-77
2021/06/05 16:06:34;;;;;;;0.32;0.32;;;37.40;24.20;;;;;;6198496;28;20038;-77
2021/06/05 16:09:34;;;;;;;2.15;0.40;;;37.20;24.40;;;;;;6170550;28;20038;-76
2021/06/05 16:12:36;;;;;;;2.08;0.40;;;36.90;24.60;;;;;;6189350;28;20396;-76
2021/06/05 16:15:59;;;;;;;0.73;0.35;;;36.70;24.80;;;;;;6205464;28;20045;-77
2021/06/05 16:19:00;;;;;;;0.28;0.28;;;36.60;24.90;;;;;;6200324;28;20046;-79
2021/06/05 16:22:01;;;;;;;1.00;0.38;;;36.70;24.80;;;;;;6173486;28;20392;-80